Time;durP1;ratioP1;P1;durP2;ratioP2;P2;SDS_P1;SDS_P2;PMS_P1;PMS_P2;Temp;Humidity;BMP_temperature;BMP_pressure;BME280_temperature;BME280_humidity;BME280_pressure;Samples;Min_cycle;Max_cycle;Signal;HPM_P1;HPM_P2
2023/09/04 00:02:15;;;;;;;0.10;0.10;;;;;;;13.37;100.00;97676.47;4888342;29;20187;-77
2023/09/04 00:05:01;;;;;;;0.10;0.10;;;;;;;13.34;100.00;97673.44;4878868;29;20094;-77
2023/09/04 00:07:47;;;;;;;0.00;0.00;;;;;;;13.31;100.00;97676.63;4879468;29;20045;-76
2023/09/04 00:10:32;;;;;;;0.10;0.10;;;;;;;13.24;100.00;97674.06;4875178;29;20493;-77
2023/09/04 00:13:18;;;;;;;0.10;0.10;;;;;;;13.20;100.00;97669.38;4891057;29;20345;-77
2023/09/04 00:16:04;;;;;;;0.10;0.10;;;;;;;13.18;100.00;97676.81;4889219;29;20135;-78
2023/09/04 00:18:50;;;;;;;0.10;0.10;;;;;;;13.10;100.00;97675.31;4889863;29;20291;-77
2023/09/04 00:21:36;;;;;;;0.10;0.10;;;;;;;13.00;100.00;97675.91;4874486;29;20036;-77
2023/09/04 00:24:23;;;;;;;0.10;0.10;;;;;;;13.02;100.00;97684.53;4887571;29;20104;-77
2023/09/04 00:27:09;;;;;;;0.10;0.10;;;;;;;12.97;100.00;97680.91;4888347;29;20506;-77
2023/09/04 00:29:57;;;;;;;0.00;0.00;;;;;;;12.91;100.00;97679.16;4875689;29;20051;-77
2023/09/04 00:32:43;;;;;;;0.00;0.00;;;;;;;12.87;100.00;97670.75;4885679;29;20074;-77
2023/09/04 00:35:30;;;;;;;0.10;0.10;;;;;;;12.88;100.00;97683.13;4865990;29;20132;-77
2023/09/04 00:38:15;;;;;;;0.10;0.10;;;;;;;12.82;100.00;97671.44;4876589;29;20423;-77
2023/09/04 00:41:02;;;;;;;0.10;0.10;;;;;;;12.82;100.00;97668.75;4875810;29;20064;-77
2023/09/04 00:43:48;;;;;;;0.10;0.10;;;;;;;12.83;100.00;97666.88;4879268;29;20100;-77
2023/09/04 00:46:33;;;;;;;0.10;0.10;;;;;;;12.94;100.00;97666.09;4886963;29;20256;-77
2023/09/04 00:49:20;;;;;;;0.10;0.10;;;;;;;12.99;100.00;97657.31;4888410;29;20190;-77
2023/09/04 00:52:05;;;;;;;0.10;0.10;;;;;;;12.96;100.00;97661.28;4880279;29;20067;-77
2023/09/04 00:54:52;;;;;;;0.10;0.10;;;;;;;12.93;100.00;97658.28;4880174;29;20116;-77
2023/09/04 00:57:41;;;;;;;0.00;0.00;;;;;;;12.96;100.00;97658.59;4887711;29;20372;-77
2023/09/04 01:00:31;;;;;;;0.10;0.10;;;;;;;12.99;100.00;97650.06;4860640;29;20505;-77
2023/09/04 01:03:18;;;;;;;0.10;0.10;;;;;;;12.98;100.00;97655.69;4888457;29;20035;-77
2023/09/04 01:06:04;;;;;;;0.10;0.10;;;;;;;12.95;100.00;97646.22;4886526;29;20055;-77
2023/09/04 01:08:51;;;;;;;0.03;0.03;;;;;;;12.90;100.00;97638.03;4888252;29;20043;-77
2023/09/04 01:11:51;;;;;;;0.17;0.17;;;;;;;12.91;100.00;97646.91;4886065;29;20114;-77
2023/09/04 01:14:39;;;;;;;0.10;0.10;;;;;;;12.86;100.00;97644.94;4885341;29;20044;-78
2023/09/04 01:17:25;;;;;;;0.10;0.10;;;;;;;12.77;100.00;97638.31;4879434;29;20052;-77
2023/09/04 01:20:23;;;;;;;0.10;0.10;;;;;;;12.72;100.00;97635.50;4881276;29;20044;-77
2023/09/04 01:23:09;;;;;;;0.00;0.00;;;;;;;12.73;100.00;97629.06;4885920;29;20499;-77
2023/09/04 01:26:23;;;;;;;0.10;0.10;;;;;;;12.79;100.00;97638.88;4880886;29;20048;-77
2023/09/04 01:29:31;;;;;;;0.10;0.10;;;;;;;12.79;100.00;97625.44;4888075;29;20607;-77
2023/09/04 01:32:26;;;;;;;0.10;0.10;;;;;;;12.68;100.00;97628.94;4887805;29;20513;-77
2023/09/04 01:35:14;;;;;;;0.10;0.10;;;;;;;12.67;100.00;97625.44;4877012;29;20063;-77
2023/09/04 01:38:00;;;;;;;0.10;0.10;;;;;;;12.70;100.00;97626.84;4887815;29;20376;-78
2023/09/04 01:40:51;;;;;;;0.10;0.10;;;;;;;12.67;100.00;97630.00;4886520;29;20887;-78
2023/09/04 01:43:36;;;;;;;0.10;0.10;;;;;;;12.65;100.00;97618.69;4875754;29;20060;-77
2023/09/04 01:46:23;;;;;;;0.10;0.10;;;;;;;12.68;100.00;97627.06;4887776;29;20048;-77
2023/09/04 01:49:08;;;;;;;0.10;0.10;;;;;;;12.70;100.00;97619.63;4879686;29;20669;-78
2023/09/04 01:51:58;;;;;;;0.10;0.10;;;;;;;12.63;100.00;97624.28;4875799;29;20056;-78
2023/09/04 01:54:43;;;;;;;0.10;0.10;;;;;;;12.55;100.00;97622.75;4882581;29;20446;-78
2023/09/04 01:57:29;;;;;;;0.10;0.10;;;;;;;12.50;100.00;97624.50;4883754;29;20408;-78
2023/09/04 02:00:15;;;;;;;0.10;0.10;;;;;;;12.42;100.00;97631.03;4877665;29;20063;-78
2023/09/04 02:03:01;;;;;;;0.10;0.10;;;;;;;12.27;100.00;97618.06;4891125;29;20040;-78
2023/09/04 02:05:47;;;;;;;0.10;0.10;;;;;;;12.28;100.00;97626.91;4890849;29;20522;-78
2023/09/04 02:08:33;;;;;;;0.10;0.10;;;;;;;12.21;100.00;97612.78;4893253;29;20044;-78
2023/09/04 02:11:19;;;;;;;0.10;0.10;;;;;;;12.24;100.00;97617.72;4891960;29;20489;-78
2023/09/04 02:14:07;;;;;;;0.10;0.10;;;;;;;12.26;100.00;97615.59;4891234;29;20600;-78
2023/09/04 02:16:53;;;;;;;0.10;0.10;;;;;;;12.27;100.00;97611.88;4889872;29;20044;-78
2023/09/04 02:19:39;;;;;;;0.10;0.10;;;;;;;12.34;100.00;97617.13;4883732;29;20062;-77
2023/09/04 02:22:25;;;;;;;0.10;0.10;;;;;;;12.47;100.00;97616.91;4880384;29;20406;-78
2023/09/04 02:25:11;;;;;;;0.10;0.10;;;;;;;12.48;100.00;97614.00;4891136;29;20044;-78
2023/09/04 02:27:57;;;;;;;0.20;0.20;;;;;;;12.50;100.00;97611.88;4888097;29;20048;-78
2023/09/04 02:30:43;;;;;;;0.10;0.10;;;;;;;12.48;100.00;97619.38;4889849;29;20064;-78
2023/09/04 02:33:28;;;;;;;0.10;0.10;;;;;;;12.57;100.00;97616.34;4866496;29;20056;-77
2023/09/04 02:36:14;;;;;;;0.05;0.05;;;;;;;12.64;100.00;97617.84;4877277;29;20628;-77
2023/09/04 02:39:00;;;;;;;0.10;0.10;;;;;;;12.67;100.00;97616.56;4893239;29;20051;-77
2023/09/04 02:41:46;;;;;;;0.10;0.10;;;;;;;12.71;100.00;97613.19;4880998;29;20147;-77
2023/09/04 02:44:32;;;;;;;0.00;0.00;;;;;;;12.66;100.00;97614.94;4888477;29;20152;-77
2023/09/04 02:47:18;;;;;;;0.10;0.10;;;;;;;12.61;100.00;97612.16;4878667;29;20051;-77
2023/09/04 02:50:05;;;;;;;0.10;0.10;;;;;;;12.57;100.00;97602.91;4878320;29;20216;-77
2023/09/04 02:52:51;;;;;;;0.10;0.10;;;;;;;12.53;100.00;97606.06;4889484;29;20056;-77
2023/09/04 02:55:37;;;;;;;0.20;0.20;;;;;;;12.51;100.00;97605.47;4890256;29;20088;-76
2023/09/04 02:58:24;;;;;;;0.10;0.10;;;;;;;12.53;100.00;97611.44;4879165;29;20052;-77
2023/09/04 03:01:09;;;;;;;0.00;0.00;;;;;;;12.52;100.00;97604.41;4868766;29;20442;-76
2023/09/04 03:03:56;;;;;;;0.10;0.10;;;;;;;12.57;100.00;97602.91;4880690;29;20037;-76
2023/09/04 03:06:42;;;;;;;0.10;0.10;;;;;;;12.54;100.00;97602.34;4882718;29;20494;-76
2023/09/04 03:09:27;;;;;;;0.10;0.10;;;;;;;12.58;100.00;97609.91;4880977;29;20331;-77
2023/09/04 03:12:13;;;;;;;0.10;0.10;;;;;;;12.58;100.00;97607.22;4889590;29;20562;-77
2023/09/04 03:15:01;;;;;;;0.10;0.10;;;;;;;12.57;100.00;97597.53;4877787;29;20040;-77
2023/09/04 03:17:48;;;;;;;0.10;0.10;;;;;;;12.50;100.00;97603.84;4875568;29;20240;-77
2023/09/04 03:20:34;;;;;;;0.10;0.10;;;;;;;12.45;100.00;97609.09;4880517;29;20121;-77
2023/09/04 03:23:20;;;;;;;0.10;0.10;;;;;;;12.37;100.00;97612.09;4890723;29;20044;-77
2023/09/04 03:26:06;;;;;;;0.10;0.10;;;;;;;12.38;100.00;97602.22;4891571;29;20044;-77
2023/09/04 03:28:53;;;;;;;0.10;0.10;;;;;;;12.27;100.00;97593.91;4888336;29;20537;-77
2023/09/04 03:31:39;;;;;;;0.10;0.10;;;;;;;12.26;100.00;97594.94;4889432;29;20119;-77
2023/09/04 03:34:25;;;;;;;0.10;0.10;;;;;;;12.32;100.00;97587.84;4882848;29;20041;-76
2023/09/04 03:37:11;;;;;;;0.10;0.10;;;;;;;12.36;100.00;97601.59;4881318;29;20103;-77
2023/09/04 03:40:17;;;;;;;0.10;0.10;;;;;;;12.34;100.00;97596.47;4880628;29;20051;-77
2023/09/04 03:43:03;;;;;;;0.10;0.10;;;;;;;12.34;100.00;97590.28;4881925;29;20513;-77
2023/09/04 03:45:51;;;;;;;0.10;0.10;;;;;;;12.27;100.00;97590.41;4887807;29;20383;-76
2023/09/04 03:48:37;;;;;;;0.10;0.10;;;;;;;12.24;100.00;97597.06;4889722;29;20048;-77
2023/09/04 03:51:22;;;;;;;0.10;0.10;;;;;;;12.19;100.00;97590.75;4888096;29;20572;-77
2023/09/04 03:54:08;;;;;;;0.13;0.13;;;;;;;12.14;100.00;97585.22;4879845;29;20429;-77
2023/09/04 03:56:54;;;;;;;0.00;0.00;;;;;;;12.10;100.00;97590.25;4881043;29;20137;-77
2023/09/04 03:59:40;;;;;;;0.10;0.10;;;;;;;12.03;100.00;97586.03;4889315;29;20316;-77
2023/09/04 04:02:26;;;;;;;0.00;0.00;;;;;;;12.03;100.00;97594.91;4888265;29;20056;-77
2023/09/04 04:05:14;;;;;;;0.10;0.10;;;;;;;12.07;100.00;97587.22;4891898;29;20044;-75
2023/09/04 04:07:59;;;;;;;0.10;0.10;;;;;;;12.03;100.00;97583.38;4864676;29;20413;-77
2023/09/04 04:10:45;;;;;;;0.10;0.10;;;;;;;11.99;100.00;97581.16;4887688;29;20228;-77
2023/09/04 04:13:31;;;;;;;0.10;0.10;;;;;;;12.00;100.00;97592.69;4880062;29;20052;-78
2023/09/04 04:16:17;;;;;;;0.10;0.10;;;;;;;12.04;100.00;97587.69;4889905;29;21246;-77
2023/09/04 04:19:04;;;;;;;0.10;0.10;;;;;;;12.05;100.00;97597.34;4866819;29;20043;-78
2023/09/04 04:21:49;;;;;;;0.10;0.10;;;;;;;12.06;100.00;97599.84;4891447;29;20048;-77
2023/09/04 04:24:36;;;;;;;0.10;0.10;;;;;;;12.09;100.00;97595.84;4877558;29;20561;-78
2023/09/04 04:27:22;;;;;;;0.10;0.10;;;;;;;12.07;100.00;97589.91;4879181;29;20056;-78
2023/09/04 04:30:08;;;;;;;0.10;0.10;;;;;;;12.10;100.00;97597.50;4888737;29;20048;-78
2023/09/04 04:32:54;;;;;;;0.10;0.10;;;;;;;12.09;100.00;97604.72;4882065;29;20079;-77
2023/09/04 04:35:41;;;;;;;0.10;0.10;;;;;;;12.06;100.00;97599.84;4884938;29;20081;-78
2023/09/04 04:38:26;;;;;;;0.10;0.10;;;;;;;12.04;100.00;97595.72;4878506;29;20057;-77
2023/09/04 04:41:13;;;;;;;0.10;0.10;;;;;;;12.09;100.00;97588.63;4882474;29;20425;-76
2023/09/04 04:43:59;;;;;;;0.10;0.10;;;;;;;12.11;100.00;97593.75;4877977;29;20048;-77
2023/09/04 04:46:46;;;;;;;0.08;0.08;;;;;;;12.12;100.00;97601.56;4876649;29;20079;-76
2023/09/04 04:49:32;;;;;;;0.10;0.10;;;;;;;12.07;100.00;97601.47;4891152;29;20048;-76
2023/09/04 04:52:17;;;;;;;0.10;0.10;;;;;;;12.04;100.00;97606.44;4881453;29;20052;-76
2023/09/04 04:55:04;;;;;;;0.10;0.10;;;;;;;12.02;100.00;97611.25;4889888;29;20044;-77
2023/09/04 04:57:50;;;;;;;0.10;0.10;;;;;;;11.96;100.00;97608.41;4888248;29;20048;-76
2023/09/04 05:00:36;;;;;;;0.15;0.15;;;;;;;11.88;100.00;97619.47;4880779;29;20054;-76
2023/09/04 05:03:22;;;;;;;0.10;0.10;;;;;;;11.81;100.00;97613.38;4880480;29;20433;-76
2023/09/04 05:06:08;;;;;;;0.10;0.10;;;;;;;11.78;100.00;97607.63;4880558;29;20524;-76
2023/09/04 05:08:54;;;;;;;0.10;0.10;;;;;;;11.82;100.00;97606.97;4879926;29;20048;-76
2023/09/04 05:11:40;;;;;;;0.00;0.00;;;;;;;11.83;100.00;97603.25;4881229;29;20537;-76
2023/09/04 05:14:27;;;;;;;0.00;0.00;;;;;;;11.95;100.00;97606.78;4880155;29;20052;-76
2023/09/04 05:17:12;;;;;;;0.10;0.10;;;;;;;12.02;100.00;97608.56;4878078;29;20055;-76
2023/09/04 05:19:58;;;;;;;0.05;0.05;;;;;;;12.01;100.00;97613.09;4891245;29;20052;-77
2023/09/04 05:22:44;;;;;;;0.10;0.10;;;;;;;12.14;100.00;97614.75;4888363;29;20463;-77
2023/09/04 05:25:30;;;;;;;0.10;0.10;;;;;;;12.16;100.00;97604.63;4862160;29;20529;-77
2023/09/04 05:28:16;;;;;;;0.10;0.10;;;;;;;12.20;100.00;97606.59;4879931;29;20163;-77
2023/09/04 05:31:03;;;;;;;0.10;0.10;;;;;;;12.28;100.00;97606.25;4891805;29;20072;-77
2023/09/04 05:33:49;;;;;;;0.08;0.08;;;;;;;12.33;100.00;97607.44;4891886;29;20776;-77
2023/09/04 05:36:35;;;;;;;0.10;0.10;;;;;;;12.41;100.00;97610.59;4893994;29;20091;-77
2023/09/04 05:39:21;;;;;;;0.10;0.10;;;;;;;12.41;100.00;97610.59;4894878;29;20414;-77
2023/09/04 05:42:07;;;;;;;0.10;0.10;;;;;;;12.51;100.00;97608.16;4890801;29;20056;-77
2023/09/04 05:44:53;;;;;;;0.05;0.05;;;;;;;12.58;100.00;97608.03;4891868;29;20510;-77
2023/09/04 05:47:38;;;;;;;0.10;0.10;;;;;;;12.63;100.00;97604.66;4893178;29;20044;-78
2023/09/04 05:50:24;;;;;;;0.10;0.10;;;;;;;12.69;100.00;97604.56;4882560;29;20053;-77
2023/09/04 05:53:10;;;;;;;0.10;0.10;;;;;;;12.72;100.00;97612.13;4893076;29;20040;-77
2023/09/04 05:56:09;;;;;;;0.10;0.10;;;;;;;12.85;100.00;97592.28;4893212;29;20052;-77
2023/09/04 05:58:56;;;;;;;0.10;0.10;;;;;;;12.90;100.00;97599.63;4879231;29;20430;-77
2023/09/04 06:01:42;;;;;;;0.10;0.10;;;;;;;12.99;100.00;97596.34;4891143;29;20087;-77
2023/09/04 06:04:27;;;;;;;0.10;0.10;;;;;;;13.08;100.00;97592.25;4892466;29;20665;-77
2023/09/04 06:07:15;;;;;;;0.10;0.10;;;;;;;13.16;100.00;97601.00;4894748;29;20418;-78
2023/09/04 06:10:03;;;;;;;0.10;0.10;;;;;;;13.22;100.00;97597.38;4891381;29;20104;-77
2023/09/04 06:12:49;;;;;;;0.05;0.05;;;;;;;13.31;100.00;97601.34;4891972;29;20040;-77
2023/09/04 06:15:35;;;;;;;0.10;0.10;;;;;;;13.35;100.00;97608.69;4893274;29;20798;-76
2023/09/04 06:18:21;;;;;;;0.10;0.10;;;;;;;13.42;100.00;97608.56;4891612;29;20044;-77
2023/09/04 06:21:07;;;;;;;0.10;0.10;;;;;;;13.51;100.00;97601.72;4893693;29;20052;-77
2023/09/04 06:23:53;;;;;;;0.10;0.10;;;;;;;13.55;100.00;97597.53;4891147;29;20435;-77
2023/09/04 06:26:41;;;;;;;0.10;0.10;;;;;;;13.63;100.00;97604.41;4891768;29;20075;-77
2023/09/04 06:29:29;;;;;;;0.10;0.10;;;;;;;13.70;100.00;97598.88;4891068;29;20520;-78
2023/09/04 06:32:15;;;;;;;0.10;0.10;;;;;;;13.80;100.00;97593.69;4891519;29;20099;-78
2023/09/04 06:35:01;;;;;;;0.10;0.10;;;;;;;13.89;100.00;97592.22;4891292;29;20076;-77
2023/09/04 06:37:46;;;;;;;0.10;0.10;;;;;;;13.96;100.00;97594.75;4891771;29;20072;-78
2023/09/04 06:40:32;;;;;;;0.10;0.10;;;;;;;14.00;100.00;97585.94;4891835;29;20048;-78
2023/09/04 06:43:18;;;;;;;0.10;0.10;;;;;;;14.04;100.00;97592.50;4892467;29;20399;-78
2023/09/04 06:46:04;;;;;;;0.10;0.10;;;;;;;14.07;100.00;97602.75;4890183;29;20545;-78
2023/09/04 06:48:52;;;;;;;0.10;0.10;;;;;;;14.12;100.00;97597.47;5310745;23;20680;-78
2023/09/04 06:51:42;;;;;;;0.20;0.20;;;;;;;14.22;100.00;97589.56;4902887;29;20131;-78
2023/09/04 06:54:29;;;;;;;0.10;0.10;;;;;;;14.25;100.00;97582.88;4903142;29;20048;-78
2023/09/04 06:57:15;;;;;;;0.05;0.05;;;;;;;14.37;100.00;97588.19;4902257;29;20032;-78
2023/09/04 07:00:08;;;;;;;0.10;0.10;;;;;;;14.48;100.00;97595.41;4903422;29;20055;-78
2023/09/04 07:02:54;;;;;;;0.10;0.10;;;;;;;14.53;100.00;97591.97;4903214;29;20056;-78
2023/09/04 07:05:41;;;;;;;0.10;0.10;;;;;;;14.51;100.00;97583.31;4901464;29;20043;-78
2023/09/04 07:08:30;;;;;;;0.10;0.10;;;;;;;14.56;100.00;97589.59;4902932;29;20099;-78
2023/09/04 07:11:18;;;;;;;0.17;0.17;;;;;;;14.67;100.00;97587.88;4900732;29;20048;-78
2023/09/04 07:14:04;;;;;;;0.10;0.10;;;;;;;14.74;100.00;97588.50;4899703;29;20126;-78
2023/09/04 07:16:50;;;;;;;0.10;0.10;;;;;;;14.79;100.00;97575.13;4899775;29;20131;-78
2023/09/04 07:19:37;;;;;;;0.10;0.10;;;;;;;14.85;100.00;97581.38;4898941;29;20341;-78
2023/09/04 07:22:27;;;;;;;0.20;0.20;;;;;;;14.93;100.00;97575.56;4886055;29;20044;-78
2023/09/04 07:25:12;;;;;;;0.10;0.10;;;;;;;15.01;100.00;97577.81;4901991;29;20044;-78
2023/09/04 07:27:58;;;;;;;0.10;0.10;;;;;;;15.10;100.00;97579.03;4901535;29;20127;-78
2023/09/04 07:30:44;;;;;;;0.10;0.10;;;;;;;15.16;100.00;97574.50;4899608;29;20056;-78
2023/09/04 07:33:30;;;;;;;0.10;0.10;;;;;;;15.27;100.00;97576.28;4900177;29;20195;-80
2023/09/04 07:36:17;;;;;;;0.20;0.20;;;;;;;15.39;100.00;97574.25;4900580;29;20044;-79
2023/09/04 07:39:03;;;;;;;0.10;0.10;;;;;;;15.43;100.00;97580.78;4901948;29;20585;-79
2023/09/04 07:41:49;;;;;;;0.10;0.10;;;;;;;15.52;100.00;97576.56;4900907;29;20051;-79
2023/09/04 07:44:35;;;;;;;0.20;0.20;;;;;;;15.59;100.00;97579.09;4886818;29;20047;-79
2023/09/04 07:47:21;;;;;;;0.10;0.10;;;;;;;15.62;100.00;97567.00;4899858;29;20068;-78
2023/09/04 07:50:07;;;;;;;0.20;0.20;;;;;;;15.67;100.00;97573.25;4901235;29;20056;-78
2023/09/04 07:52:55;;;;;;;0.13;0.13;;;;;;;15.84;100.00;97578.56;4900122;29;20517;-78
2023/09/04 07:55:42;;;;;;;0.20;0.20;;;;;;;15.91;100.00;97581.06;4901333;29;20047;-78
2023/09/04 07:58:28;;;;;;;0.17;0.17;;;;;;;15.99;100.00;97573.31;4899533;29;20044;-78
2023/09/04 08:01:14;;;;;;;0.10;0.10;;;;;;;16.07;100.00;97577.44;4899896;29;20044;-79
2023/09/04 08:04:03;;;;;;;0.10;0.10;;;;;;;16.00;100.00;97584.91;4886309;29;20410;-78
2023/09/04 08:06:49;;;;;;;0.10;0.10;;;;;;;16.16;100.00;97592.06;4886869;29;20047;-78
2023/09/04 08:09:35;;;;;;;0.10;0.10;;;;;;;16.30;100.00;97570.88;4900533;29;20043;-78
2023/09/04 08:12:21;;;;;;;0.10;0.10;;;;;;;16.47;100.00;97579.63;4884452;29;20052;-78
2023/09/04 08:15:08;;;;;;;0.10;0.10;;;;;;;16.50;100.00;97586.41;4883840;29;20569;-78
2023/09/04 08:17:54;;;;;;;0.10;0.10;;;;;;;16.60;100.00;97578.38;4900064;29;20537;-78
2023/09/04 08:20:40;;;;;;;0.17;0.17;;;;;;;16.59;100.00;97593.78;4900091;29;20056;-78
2023/09/04 08:23:25;;;;;;;0.10;0.10;;;;;;;16.66;100.00;97578.19;4896785;29;20167;-78
2023/09/04 08:26:15;;;;;;;0.10;0.10;;;;;;;16.82;100.00;97592.63;4899971;29;20044;-79
2023/09/04 08:29:00;;;;;;;0.20;0.20;;;;;;;16.89;100.00;97577.00;4900786;29;20331;-78
2023/09/04 08:31:46;;;;;;;0.10;0.10;;;;;;;16.81;100.00;97573.94;4899625;29;20056;-78
2023/09/04 08:34:32;;;;;;;0.20;0.20;;;;;;;16.86;100.00;97572.09;4899725;29;20429;-78
2023/09/04 08:37:18;;;;;;;0.10;0.10;;;;;;;16.91;100.00;97585.66;4884848;29;20413;-79
2023/09/04 08:40:05;;;;;;;0.10;0.10;;;;;;;16.91;100.00;97564.03;4898714;29;20055;-79
2023/09/04 08:42:54;;;;;;;0.10;0.10;;;;;;;17.05;100.00;97586.00;4899167;29;20042;-79
2023/09/04 08:45:43;;;;;;;0.10;0.10;;;;;;;17.07;100.00;97573.03;4884570;29;20403;-79
2023/09/04 08:48:30;;;;;;;0.10;0.10;;;;;;;17.20;100.00;97579.84;4899017;29;20051;-79
2023/09/04 08:51:26;;;;;;;0.10;0.10;;;;;;;17.33;100.00;97576.66;4871354;29;20175;-80
2023/09/04 08:54:15;;;;;;;;;;;;;;;17.32;100.00;97580.44;4901711;29;20499;-79
2023/09/04 08:57:01;;;;;;;0.10;0.10;;;;;;;17.40;100.00;97581.81;4901189;29;20456;-80
2023/09/04 08:59:46;;;;;;;0.10;0.10;;;;;;;17.64;100.00;97601.13;4899911;29;20359;-79
2023/09/04 09:02:33;;;;;;;0.20;0.20;;;;;;;17.56;100.00;97597.03;4897096;29;20119;-80
2023/09/04 09:05:20;;;;;;;0.10;0.10;;;;;;;17.62;100.00;97603.28;4885139;29;20048;-80
2023/09/04 09:08:07;;;;;;;0.15;0.15;;;;;;;17.73;100.00;97596.84;4894715;29;20044;-79
2023/09/04 09:10:53;;;;;;;0.10;0.10;;;;;;;17.88;100.00;97583.34;4881630;29;20198;-79
2023/09/04 09:13:39;;;;;;;0.10;0.10;;;;;;;18.06;100.00;97590.16;4879838;29;20377;-80
2023/09/04 09:16:27;;;;;;;0.10;0.10;;;;;;;18.21;100.00;97598.31;4896734;29;20036;-79
2023/09/04 09:19:13;;;;;;;0.20;0.20;;;;;;;18.27;100.00;97596.38;4879395;29;20044;-79
2023/09/04 09:22:14;;;;;;;0.10;0.10;;;;;;;18.17;100.00;97604.50;4898055;29;20051;-80
2023/09/04 09:25:00;;;;;;;0.20;0.20;;;;;;;18.16;100.00;97597.47;4895612;29;20040;-80
2023/09/04 09:27:49;;;;;;;0.10;0.10;;;;;;;18.35;100.00;97593.94;4899019;29;20066;-80
2023/09/04 09:30:37;;;;;;;0.10;0.10;;;;;;;18.37;100.00;97594.50;4898115;29;20048;-79
2023/09/04 09:33:23;;;;;;;0.10;0.10;;;;;;;18.37;100.00;97608.06;4898282;29;20119;-79
2023/09/04 09:36:14;;;;;;;0.08;0.08;;;;;;;18.56;100.00;97607.50;4897161;29;20048;-79
2023/09/04 09:39:00;;;;;;;0.10;0.10;;;;;;;18.56;100.00;97602.91;4898316;29;20047;-79
2023/09/04 09:41:47;;;;;;;0.15;0.15;;;;;;;18.72;100.00;97597.50;4884233;29;20052;-79
2023/09/04 09:44:34;;;;;;;0.10;0.10;;;;;;;19.03;100.00;97601.78;4884057;29;20574;-80
2023/09/04 09:47:21;;;;;;;0.10;0.10;;;;;;;19.09;100.00;97595.25;4882625;29;20577;-79
2023/09/04 09:50:10;;;;;;;0.10;0.10;;;;;;;19.10;100.00;97590.63;4865502;29;20060;-79
2023/09/04 09:53:00;;;;;;;0.10;0.10;;;;;;;19.00;100.00;97596.91;4860931;29;20430;-79
2023/09/04 09:55:48;;;;;;;0.10;0.10;;;;;;;19.07;100.00;97596.63;4861568;29;20126;-79
2023/09/04 09:58:34;;;;;;;0.10;0.10;;;;;;;19.54;100.00;97588.03;4857313;29;20140;-79
2023/09/04 10:01:20;;;;;;;0.20;0.20;;;;;;;19.81;100.00;97586.84;4857232;29;20551;-80
2023/09/04 10:04:08;;;;;;;0.10;0.10;;;;;;;19.62;100.00;97565.78;4860770;29;20143;-80
2023/09/04 10:07:03;;;;;;;0.10;0.10;;;;;;;19.69;100.00;97579.84;4861020;29;20045;-79
2023/09/04 10:10:05;;;;;;;0.10;0.10;;;;;;;19.52;100.00;97565.78;4860639;29;20346;-79
2023/09/04 10:13:02;;;;;;;0.10;0.10;;;;;;;19.96;100.00;97565.03;4860330;29;20380;-80
2023/09/04 10:15:52;;;;;;;0.10;0.10;;;;;;;20.07;100.00;97560.31;4861746;29;20045;-79
2023/09/04 10:18:40;;;;;;;0.10;0.10;;;;;;;19.91;100.00;97557.69;4863545;29;20376;-80
2023/09/04 10:21:32;;;;;;;0.20;0.20;;;;;;;20.07;100.00;97552.16;4863904;29;20825;-79
2023/09/04 10:24:26;;;;;;;0.10;0.10;;;;;;;20.24;100.00;97553.41;4863972;29;20041;-80
2023/09/04 10:27:13;;;;;;;0.10;0.10;;;;;;;20.50;100.00;97542.34;4862788;29;20779;-80
2023/09/04 10:30:05;;;;;;;0.10;0.10;;;;;;;20.62;100.00;97548.19;4873853;29;20266;-79
2023/09/04 10:32:54;;;;;;;0.10;0.10;;;;;;;20.63;100.00;97538.16;4875965;29;20100;-80
2023/09/04 10:35:41;;;;;;;0.15;0.13;;;;;;;21.19;99.26;97551.16;4863725;29;20418;-79
2023/09/04 10:38:27;;;;;;;0.13;0.13;;;;;;;21.55;94.28;97549.59;4862954;29;20048;-80
2023/09/04 10:41:15;;;;;;;0.10;0.10;;;;;;;22.27;90.17;97532.25;4862132;29;20055;-79
2023/09/04 10:44:01;;;;;;;0.20;0.20;;;;;;;23.66;81.13;97537.53;4861867;29;20057;-80
2023/09/04 10:46:55;;;;;;;0.10;0.10;;;;;;;24.87;75.81;97544.72;4863762;29;20047;-80
2023/09/04 10:49:42;;;;;;;0.20;0.20;;;;;;;26.90;55.99;97540.44;4880958;29;20197;-80
2023/09/04 10:52:41;;;;;;;0.10;0.10;;;;;;;27.95;48.92;97536.06;4900210;29;20510;-80
2023/09/04 10:55:31;;;;;;;0.20;0.20;;;;;;;29.47;44.33;97539.00;4866071;29;20083;-80
2023/09/04 10:58:17;;;;;;;0.20;0.20;;;;;;;30.46;41.16;97524.66;4873778;29;20056;-80
2023/09/04 11:01:36;;;;;;;0.20;0.20;;;;;;;29.82;39.71;97525.53;4898581;29;20054;-80
2023/09/04 11:04:45;;;;;;;0.10;0.10;;;;;;;31.36;35.03;97515.94;4899135;29;20179;-80
2023/09/04 11:07:35;;;;;;;0.20;0.20;;;;;;;29.45;37.79;97516.50;4900167;29;20044;-80
2023/09/04 11:10:34;;;;;;;0.10;0.10;;;;;;;31.08;34.51;97505.75;4899831;29;20749;-80
2023/09/04 11:13:21;;;;;;;0.10;0.10;;;;;;;32.02;32.46;97504.81;4899514;29;20687;-80
2023/09/04 11:16:08;;;;;;;0.20;0.20;;;;;;;33.14;31.36;97503.78;4894713;29;20044;-80
2023/09/04 11:19:20;;;;;;;0.13;0.13;;;;;;;33.33;31.40;97505.66;4899026;29;20052;-81
2023/09/04 11:22:15;;;;;;;0.10;0.10;;;;;;;33.36;30.42;97496.59;4897042;29;20972;-79
2023/09/04 11:25:01;;;;;;;0.10;0.10;;;;;;;33.48;29.22;97482.56;4898441;29;20450;-79
2023/09/04 11:27:47;;;;;;;0.13;0.13;;;;;;;34.30;28.31;97502.28;4899745;29;20481;-80
2023/09/04 11:30:33;;;;;;;0.10;0.10;;;;;;;32.65;28.94;97504.50;4898659;29;20048;-79
2023/09/04 11:33:22;;;;;;;0.10;0.10;;;;;;;32.70;30.05;97495.09;4899588;29;20060;-79
2023/09/04 11:36:08;;;;;;;0.10;0.10;;;;;;;34.07;26.51;97499.63;4899168;29;20048;-80
2023/09/04 11:39:05;;;;;;;0.20;0.20;;;;;;;32.26;28.07;97500.94;4899386;29;20488;-80
2023/09/04 11:41:51;;;;;;;0.10;0.10;;;;;;;32.35;28.83;97507.09;4887194;29;20123;-81
2023/09/04 11:44:37;;;;;;;0.20;0.20;;;;;;;31.65;28.79;97512.66;4900886;29;20056;-80
2023/09/04 11:47:23;;;;;;;0.20;0.20;;;;;;;33.89;27.67;97493.84;4895763;29;20523;-81
2023/09/04 11:50:30;;;;;;;0.10;0.10;;;;;;;33.17;27.11;97497.50;4885475;29;20110;-80
2023/09/04 11:53:15;;;;;;;0.10;0.10;;;;;;;34.89;25.89;97478.31;4899237;29;20489;-80
2023/09/04 11:56:03;;;;;;;0.10;0.10;;;;;;;35.60;26.95;97478.09;4884899;29;20198;-80
2023/09/04 11:58:49;;;;;;;0.10;0.10;;;;;;;37.50;26.41;97474.59;4899114;29;20043;-81
2023/09/04 12:01:35;;;;;;;0.10;0.10;;;;;;;38.00;26.43;97477.31;4899648;29;20047;-81
2023/09/04 12:04:21;;;;;;;0.10;0.10;;;;;;;38.91;22.66;97466.03;4900995;29;20036;-81
2023/09/04 12:07:07;;;;;;;0.10;0.10;;;;;;;38.49;24.00;97472.69;4899404;29;20550;-80
2023/09/04 12:09:53;;;;;;;0.10;0.10;;;;;;;38.82;22.44;97468.50;4897808;29;20047;-81
2023/09/04 12:12:39;;;;;;;0.10;0.10;;;;;;;34.80;25.11;97466.72;4900003;29;20130;-81
2023/09/04 12:15:30;;;;;;;0.10;0.10;;;;;;;36.17;25.25;97461.69;4878704;29;20051;-80
2023/09/04 12:18:17;;;;;;;0.10;0.10;;;;;;;35.89;25.55;97465.97;4886706;29;20120;-80
2023/09/04 12:21:10;;;;;;;0.20;0.20;;;;;;;36.37;23.79;97474.13;4900756;29;20052;-80
2023/09/04 12:23:58;;;;;;;0.10;0.10;;;;;;;36.70;23.25;97466.63;4895185;29;20040;-80
2023/09/04 12:26:47;;;;;;;0.10;0.10;;;;;;;37.54;23.87;97458.66;4899193;29;20103;-81
2023/09/04 12:29:34;;;;;;;0.10;0.10;;;;;;;35.86;24.27;97463.13;4900627;29;20094;-81
2023/09/04 12:32:21;;;;;;;0.10;0.10;;;;;;;36.41;24.66;97457.41;4897512;29;20055;-80
2023/09/04 12:35:08;;;;;;;0.10;0.10;;;;;;;34.89;24.63;97462.44;4898358;29;20048;-80
2023/09/04 12:37:54;;;;;;;0.10;0.10;;;;;;;37.61;23.48;97448.28;4900989;29;20051;-81
2023/09/04 12:40:40;;;;;;;0.10;0.10;;;;;;;39.08;22.70;97461.53;4900949;29;20059;-81
2023/09/04 12:43:29;;;;;;;0.10;0.10;;;;;;;37.77;22.38;97447.84;4899000;29;20140;-81
2023/09/04 12:46:15;;;;;;;0.10;0.10;;;;;;;39.20;21.80;97461.03;4899161;29;20248;-81
2023/09/04 12:49:00;;;;;;;0.10;0.10;;;;;;;38.96;21.83;97458.00;4897827;29;20086;-79
2023/09/04 12:51:46;;;;;;;0.10;0.10;;;;;;;40.02;20.77;97463.03;4898803;29;20058;-79
2023/09/04 12:54:32;;;;;;;0.10;0.10;;;;;;;40.04;21.26;97452.19;4896517;29;20040;-79
2023/09/04 12:57:18;;;;;;;0.10;0.10;;;;;;;39.58;20.39;97452.69;4900099;29;20350;-79
2023/09/04 13:00:04;;;;;;;0.10;0.10;;;;;;;39.70;21.58;97449.38;4899201;29;20051;-79
2023/09/04 13:02:50;;;;;;;0.10;0.10;;;;;;;40.32;20.60;97445.41;4898403;29;20116;-81